createdAt,value
2023-01-01T00:03:56.482Z,12.90
2023-01-01T00:09:11.427Z,12.80
2023-01-01T00:11:41.044Z,13.40
2023-01-01T00:14:12.272Z,13.30
2023-01-01T00:19:08.043Z,12.80
2023-01-01T00:21:35.398Z,12.90
2023-01-01T00:24:02.997Z,12.70
2023-01-01T00:26:34.830Z,12.80
2023-01-01T00:29:02.935Z,12.90
2023-01-01T00:31:30.657Z,13.80
2023-01-01T00:34:00.769Z,13.00
2023-01-01T00:36:29.637Z,12.80
2023-01-01T00:38:57.189Z,13.20
2023-01-01T00:41:26.197Z,13.10
2023-01-01T00:48:49.479Z,12.70
2023-01-01T00:53:44.485Z,12.60
2023-01-01T00:56:11.975Z,12.80
2023-01-01T00:58:39.459Z,12.60
2023-01-01T01:03:34.861Z,12.50
2023-01-01T01:06:05.232Z,12.50
2023-01-01T01:08:34.422Z,12.50
2023-01-01T01:11:25.354Z,12.70
2023-01-01T01:13:56.033Z,12.50
2023-01-01T01:18:53.216Z,12.30
2023-01-01T01:21:22.891Z,12.50
2023-01-01T01:23:54.079Z,12.90
2023-01-01T01:26:26.846Z,12.20
2023-01-01T01:31:24.503Z,12.40
2023-01-01T01:33:52.030Z,12.60
2023-01-01T01:36:19.909Z,12.50
2023-01-01T01:38:47.855Z,12.30
2023-01-01T01:41:27.391Z,12.20
2023-01-01T01:44:07.019Z,11.60
2023-01-01T01:46:41.544Z,12.00
2023-01-01T01:49:21.711Z,12.20
2023-01-01T01:51:50.085Z,11.90
2023-01-01T01:54:22.639Z,12.20
2023-01-01T01:59:20.359Z,12.20
2023-01-01T02:04:16.904Z,12.20
2023-01-01T02:06:45.160Z,12.20
2023-01-01T02:09:13.749Z,12.10
2023-01-01T02:11:41.127Z,11.70
2023-01-01T02:14:08.557Z,13.10
2023-01-01T02:16:56.904Z,12.20
2023-01-01T02:19:56.774Z,11.90
2023-01-01T02:22:50.097Z,12.00
2023-01-01T02:25:41.416Z,12.10
2023-01-01T02:28:47.552Z,12.60
2023-01-01T02:31:26.837Z,12.10
2023-01-01T02:33:59.173Z,11.90
2023-01-01T02:36:29.385Z,12.00
2023-01-01T02:39:00.006Z,12.20
2023-01-01T02:41:36.544Z,12.60
2023-01-01T02:46:33.042Z,11.70
2023-01-01T02:49:06.192Z,11.90
2023-01-01T02:51:58.712Z,11.50
2023-01-01T02:54:32.311Z,11.80
2023-01-01T02:57:05.604Z,12.90
2023-01-01T03:00:02.617Z,12.50
2023-01-01T03:02:45.239Z,11.80
2023-01-01T03:05:33.310Z,11.70
2023-01-01T03:08:14.538Z,11.80
2023-01-01T03:10:56.171Z,11.60
2023-01-01T03:13:45.139Z,11.70
2023-01-01T03:16:21.471Z,11.60
2023-01-01T03:21:22.318Z,11.60
2023-01-01T03:23:54.902Z,11.50
2023-01-01T03:26:27.513Z,11.80
2023-01-01T03:28:59.055Z,11.80
2023-01-01T03:31:27.017Z,11.50
2023-01-01T03:34:05.219Z,11.70
2023-01-01T03:36:41.566Z,11.80
2023-01-01T03:39:14.460Z,11.50
2023-01-01T03:41:49.472Z,11.40
2023-01-01T03:44:27.811Z,11.60
2023-01-01T03:46:57.116Z,11.30
2023-01-01T03:49:25.877Z,11.90
2023-01-01T03:54:45.266Z,11.30
2023-01-01T03:57:26.550Z,11.40
2023-01-01T04:03:00.234Z,11.20
2023-01-01T04:05:29.655Z,11.40
2023-01-01T04:08:01.814Z,11.30
2023-01-01T04:10:33.330Z,12.10
2023-01-01T04:13:04.570Z,11.40
2023-01-01T04:15:32.685Z,11.20
2023-01-01T04:18:00.106Z,12.90
2023-01-01T04:20:27.732Z,12.80
2023-01-01T04:22:59.927Z,13.10
2023-01-01T04:25:28.668Z,11.20
2023-01-01T04:27:59.272Z,11.70
2023-01-01T04:30:28.462Z,11.20
2023-01-01T04:32:56.979Z,11.10
2023-01-01T04:35:24.292Z,11.40
2023-01-01T04:37:51.617Z,12.00
2023-01-01T04:40:19.079Z,11.10
2023-01-01T04:42:46.542Z,11.30
2023-01-01T04:45:15.212Z,11.20
2023-01-01T04:47:43.320Z,11.20
2023-01-01T04:55:08.820Z,11.20
2023-01-01T04:57:36.974Z,11.20
2023-01-01T05:00:04.929Z,11.30
2023-01-01T05:02:32.531Z,11.40
2023-01-01T05:04:59.986Z,11.20
2023-01-01T05:07:27.349Z,11.20
2023-01-01T05:12:22.566Z,11.20
2023-01-01T05:14:49.815Z,11.30
2023-01-01T05:17:17.193Z,12.30
2023-01-01T05:19:44.568Z,11.20
2023-01-01T05:22:12.105Z,11.70
2023-01-01T05:24:39.474Z,11.20
2023-01-01T05:27:06.782Z,10.80
2023-01-01T05:29:34.626Z,11.20
2023-01-01T05:32:02.786Z,11.20
2023-01-01T05:36:58.579Z,11.30
2023-01-01T05:39:26.149Z,11.20
2023-01-01T05:41:53.568Z,12.20
2023-01-01T05:44:21.517Z,11.30
2023-01-01T05:46:48.994Z,11.60
2023-01-01T05:49:16.388Z,11.10
2023-01-01T05:51:43.818Z,11.20
2023-01-01T05:59:09.981Z,11.30
2023-01-01T06:01:43.499Z,11.30
2023-01-01T06:04:13.663Z,11.30
2023-01-01T06:06:41.336Z,11.60
2023-01-01T06:09:10.953Z,11.30
2023-01-01T06:14:06.429Z,11.60
2023-01-01T06:16:36.068Z,11.40
2023-01-01T06:19:05.033Z,11.20
2023-01-01T06:21:33.676Z,11.00
2023-01-01T06:24:01.558Z,11.10
2023-01-01T06:26:33.070Z,11.30
2023-01-01T06:29:03.118Z,11.30
2023-01-01T06:31:36.806Z,11.40
2023-01-01T06:36:36.348Z,11.30
2023-01-01T06:39:05.845Z,11.20
2023-01-01T06:44:02.427Z,11.00
2023-01-01T06:46:33.191Z,11.30
2023-01-01T06:49:10.499Z,10.90
2023-01-01T06:51:39.178Z,10.80
2023-01-01T06:54:07.260Z,11.30
2023-01-01T06:59:05.682Z,11.40
2023-01-01T07:01:35.961Z,11.40
2023-01-01T07:04:06.141Z,11.20
2023-01-01T07:06:35.321Z,11.20
2023-01-01T07:11:31.816Z,11.20
2023-01-01T07:14:00.640Z,11.20
2023-01-01T07:18:57.614Z,11.30
2023-01-01T07:21:32.750Z,11.30
2023-01-01T07:24:02.301Z,11.50
2023-01-01T07:26:32.093Z,11.30
2023-01-01T07:31:37.156Z,11.40
2023-01-01T07:34:06.405Z,11.20
2023-01-01T07:41:30.302Z,11.20
2023-01-01T07:43:59.645Z,11.00
2023-01-01T07:46:28.887Z,11.10
2023-01-01T07:48:58.249Z,11.20
2023-01-01T07:51:25.760Z,11.10
2023-01-01T07:53:53.225Z,11.10
2023-01-01T07:58:51.225Z,11.10
2023-01-01T08:03:52.038Z,11.10
2023-01-01T08:08:51.709Z,10.90
2023-01-01T08:16:15.338Z,10.90
2023-01-01T08:21:10.465Z,11.10
2023-01-01T08:23:38.276Z,11.00
2023-01-01T08:26:06.717Z,10.80
2023-01-01T08:31:02.819Z,10.80
2023-01-01T08:33:31.552Z,10.90
2023-01-01T08:36:02.725Z,10.90
2023-01-01T08:38:30.297Z,10.90
2023-01-01T08:40:57.729Z,10.90
2023-01-01T08:43:25.287Z,11.40
2023-01-01T08:45:52.759Z,10.90
2023-01-01T08:48:27.089Z,9.90
2023-01-01T08:51:01.253Z,10.90
2023-01-01T08:53:29.956Z,10.90
2023-01-01T08:55:58.947Z,10.90
2023-01-01T08:58:26.939Z,13.70
2023-01-01T09:00:56.192Z,10.80
2023-01-01T09:08:22.436Z,11.20
2023-01-01T09:10:50.971Z,11.70
2023-01-01T09:13:21.227Z,11.00
2023-01-01T09:15:50.398Z,10.80
2023-01-01T09:18:18.171Z,11.40
2023-01-01T09:20:45.534Z,11.10
2023-01-01T09:23:13.729Z,11.10
2023-01-01T09:25:42.579Z,11.00
2023-01-01T09:28:13.832Z,11.20
2023-01-01T09:30:41.344Z,11.70
2023-01-01T09:33:08.716Z,11.90
2023-01-01T09:35:38.439Z,11.20
2023-01-01T09:38:05.864Z,11.40
2023-01-01T09:40:53.097Z,11.10
2023-01-01T09:43:52.976Z,11.20
2023-01-01T09:46:29.557Z,11.40
2023-01-01T09:49:03.501Z,11.70
2023-01-01T09:51:38.779Z,11.30
2023-01-01T09:54:29.937Z,11.50
2023-01-01T09:57:00.013Z,11.40
2023-01-01T09:59:29.982Z,12.70
2023-01-01T10:02:21.328Z,12.50
2023-01-01T10:05:13.648Z,11.50
2023-01-01T10:07:56.322Z,11.40
2023-01-01T10:10:37.792Z,11.60
2023-01-01T10:13:24.378Z,12.40
2023-01-01T10:16:02.059Z,11.50
2023-01-01T10:18:38.267Z,11.70
2023-01-01T10:21:28.377Z,11.80
2023-01-01T10:23:57.712Z,11.70
2023-01-01T10:26:29.766Z,11.80
2023-01-01T10:29:03.474Z,11.80
2023-01-01T10:31:41.540Z,11.80
2023-01-01T10:34:23.217Z,11.70
2023-01-01T10:36:54.010Z,11.90
2023-01-01T10:39:21.669Z,11.80
2023-01-01T10:41:49.586Z,11.80
2023-01-01T10:44:27.607Z,11.80
2023-01-01T10:46:58.954Z,12.20
2023-01-01T10:51:54.915Z,12.20
2023-01-01T10:54:40.211Z,12.10
2023-01-01T10:57:35.919Z,12.00
2023-01-01T11:00:24.976Z,11.90
2023-01-01T11:03:20.457Z,12.00
2023-01-01T11:06:10.714Z,11.70
2023-01-01T11:08:46.663Z,12.00
2023-01-01T11:11:27.170Z,11.90
2023-01-01T11:13:58.312Z,12.00
2023-01-01T11:16:28.493Z,12.10
2023-01-01T11:19:07.926Z,12.30
2023-01-01T11:21:36.247Z,12.30
2023-01-01T11:24:20.972Z,11.90
2023-01-01T11:26:54.338Z,12.20
2023-01-01T11:29:28.693Z,12.20
2023-01-01T11:31:58.189Z,12.20
2023-01-01T11:34:38.062Z,12.30
2023-01-01T11:37:13.695Z,12.30
2023-01-01T11:39:46.776Z,12.30
2023-01-01T11:42:20.303Z,12.10
2023-01-01T11:45:32.922Z,12.10
2023-01-01T11:48:23.071Z,12.30
2023-01-01T11:50:55.686Z,12.30
2023-01-01T11:53:23.019Z,12.30
2023-01-01T11:56:02.214Z,12.30
2023-01-01T11:58:48.641Z,12.60
2023-01-01T12:01:40.798Z,12.40
2023-01-01T12:04:23.570Z,12.20
2023-01-01T12:06:56.531Z,12.10
2023-01-01T12:09:30.190Z,12.20
2023-01-01T12:12:23.323Z,12.10
2023-01-01T12:15:14.214Z,12.20
2023-01-01T12:17:51.958Z,12.20
2023-01-01T12:20:57.482Z,12.30
2023-01-01T12:23:25.186Z,12.40
2023-01-01T12:26:23.551Z,12.50
2023-01-01T12:29:08.368Z,12.30
2023-01-01T12:32:01.084Z,12.20
2023-01-01T12:35:10.149Z,12.30
2023-01-01T12:38:01.816Z,12.30
2023-01-01T12:40:52.417Z,12.40
2023-01-01T12:43:43.064Z,12.30
2023-01-01T12:46:19.675Z,12.30
2023-01-01T12:48:47.560Z,12.30
2023-01-01T12:51:41.679Z,13.10
2023-01-01T12:54:37.914Z,12.30
2023-01-01T12:57:27.957Z,12.30
2023-01-01T13:00:00.602Z,12.40
2023-01-01T13:02:35.092Z,12.40
2023-01-01T13:05:44.199Z,12.20
2023-01-01T13:08:12.464Z,12.40
2023-01-01T13:11:02.573Z,12.10
2023-01-01T13:13:30.219Z,12.30
2023-01-01T13:15:57.999Z,13.60
2023-01-01T13:18:36.454Z,12.30
2023-01-01T13:21:25.849Z,12.20
2023-01-01T13:23:58.753Z,12.30
2023-01-01T13:26:29.099Z,12.80
2023-01-01T13:28:59.464Z,12.20
2023-01-01T13:31:42.047Z,12.20
2023-01-01T13:34:31.557Z,12.20
2023-01-01T13:37:27.311Z,12.30
2023-01-01T13:40:02.978Z,12.30
2023-01-01T13:42:39.197Z,12.30
2023-01-01T13:46:00.726Z,13.20
2023-01-01T13:48:38.344Z,12.40
2023-01-01T13:51:54.991Z,12.20
2023-01-01T13:54:33.052Z,12.30
2023-01-01T13:57:07.597Z,12.20
2023-01-01T14:00:20.060Z,12.30
2023-01-01T14:02:59.617Z,12.40
2023-01-01T14:05:44.644Z,12.40
2023-01-01T14:08:35.101Z,12.20
2023-01-01T14:11:18.066Z,12.20
2023-01-01T14:13:45.793Z,12.20
2023-01-01T14:16:15.873Z,12.20
2023-01-01T14:18:56.064Z,12.40
2023-01-01T14:21:27.928Z,12.20
2023-01-01T14:23:58.701Z,12.10
2023-01-01T14:26:29.553Z,12.10
2023-01-01T14:29:01.882Z,12.10
2023-01-01T14:31:32.269Z,12.10
2023-01-01T14:34:02.464Z,12.50
2023-01-01T14:36:32.074Z,12.10
2023-01-01T14:39:03.115Z,12.00
2023-01-01T14:41:35.984Z,12.10
2023-01-01T14:44:17.627Z,12.50
2023-01-01T14:46:50.711Z,12.00
2023-01-01T14:49:33.074Z,12.00
2023-01-01T14:52:25.263Z,11.90
2023-01-01T14:54:53.683Z,11.90
2023-01-01T14:57:26.121Z,11.90
2023-01-01T14:59:54.694Z,11.80
2023-01-01T15:02:25.187Z,12.40
2023-01-01T15:04:52.691Z,12.00
2023-01-01T15:07:28.362Z,11.90
2023-01-01T15:10:00.340Z,11.80
2023-01-01T15:12:29.515Z,11.90
2023-01-01T15:14:58.111Z,11.90
2023-01-01T15:17:27.367Z,11.90
2023-01-01T15:20:19.025Z,12.00
2023-01-01T15:25:17.899Z,11.90
2023-01-01T15:27:50.191Z,11.80
2023-01-01T15:30:33.764Z,12.00
2023-01-01T15:33:09.893Z,11.70
2023-01-01T15:35:38.171Z,11.80
2023-01-01T15:38:20.490Z,11.80
2023-01-01T15:40:53.233Z,11.80
2023-01-01T15:43:30.036Z,12.80
2023-01-01T15:46:18.695Z,11.80
2023-01-01T15:48:51.489Z,11.80
2023-01-01T15:51:25.685Z,11.70
2023-01-01T15:54:07.835Z,11.50
2023-01-01T15:56:41.249Z,11.60
2023-01-01T15:59:31.518Z,11.80
2023-01-01T16:02:09.925Z,11.80
2023-01-01T16:04:40.541Z,11.80
2023-01-01T16:07:16.741Z,11.70
2023-01-01T16:09:44.155Z,11.70
2023-01-01T16:12:11.481Z,12.10
2023-01-01T16:14:38.835Z,11.40
2023-01-01T16:19:34.279Z,11.60
2023-01-01T16:22:02.377Z,11.50
2023-01-01T16:24:37.034Z,11.20
2023-01-01T16:27:06.236Z,11.30
2023-01-01T16:29:34.347Z,11.20
2023-01-01T16:32:01.923Z,10.70
2023-01-01T16:36:57.442Z,10.70
2023-01-01T16:39:27.556Z,10.50
2023-01-01T16:41:58.947Z,10.40
2023-01-01T16:49:22.929Z,10.40
2023-01-01T16:51:51.612Z,10.30
2023-01-01T16:54:21.983Z,10.30
2023-01-01T16:59:24.320Z,10.40
2023-01-01T17:01:52.033Z,10.50
2023-01-01T17:04:22.149Z,10.60
2023-01-01T17:09:19.832Z,10.40
2023-01-01T17:19:15.031Z,10.20
2023-01-01T17:21:46.232Z,10.50
2023-01-01T17:24:18.756Z,10.80
2023-01-01T17:31:43.738Z,10.60
2023-01-01T17:34:14.912Z,11.50
2023-01-01T17:36:44.081Z,10.70
2023-01-01T17:39:15.262Z,10.80
2023-01-01T17:41:43.779Z,10.90
2023-01-01T17:44:14.489Z,10.80
2023-01-01T17:46:44.396Z,10.80
2023-01-01T17:49:12.351Z,10.60
2023-01-01T17:54:13.212Z,10.90
2023-01-01T17:59:09.475Z,10.90
2023-01-01T18:01:38.279Z,12.20
2023-01-01T18:04:07.338Z,10.90
2023-01-01T18:06:41.897Z,11.30
2023-01-01T18:09:27.612Z,10.70
2023-01-01T18:12:02.427Z,10.90
2023-01-01T18:16:58.109Z,10.80
2023-01-01T18:29:22.949Z,11.00
2023-01-01T18:31:54.709Z,10.80
2023-01-01T18:34:22.425Z,10.90
2023-01-01T18:36:55.275Z,10.70
2023-01-01T18:39:25.825Z,10.80
2023-01-01T18:42:19.558Z,11.30
2023-01-01T18:44:48.442Z,10.70
2023-01-01T18:47:18.718Z,10.70
2023-01-01T18:50:14.606Z,13.00
2023-01-01T18:52:42.257Z,10.80
2023-01-01T18:55:09.703Z,10.70
2023-01-01T19:00:37.145Z,10.50
2023-01-01T19:03:13.795Z,10.30
2023-01-01T19:05:41.927Z,9.70
2023-01-01T19:10:43.901Z,10.50
2023-01-01T19:13:19.147Z,10.30
2023-01-01T19:16:10.857Z,12.40
2023-01-01T19:18:44.905Z,10.00
2023-01-01T19:21:12.363Z,11.10
2023-01-01T19:23:52.663Z,10.10
2023-01-01T19:26:42.763Z,10.30
2023-01-01T19:29:22.165Z,11.40
2023-01-01T19:31:52.285Z,10.60
2023-01-01T19:34:22.548Z,10.40
2023-01-01T19:39:19.832Z,10.20
2023-01-01T19:44:21.359Z,10.10
2023-01-01T19:46:52.238Z,11.00
2023-01-01T19:49:21.182Z,10.10
2023-01-01T19:56:44.831Z,10.10
2023-01-01T19:59:15.439Z,11.40
2023-01-01T20:04:11.228Z,10.00
2023-01-01T20:06:38.730Z,10.00
2023-01-01T20:11:36.112Z,10.20
2023-01-01T20:31:51.583Z,9.80
2023-01-01T20:37:06.255Z,10.00
2023-01-01T20:39:35.729Z,9.40
2023-01-01T20:44:33.849Z,9.60
2023-01-01T21:02:08.395Z,9.20
2023-01-01T21:07:12.441Z,9.20
2023-01-01T21:09:40.892Z,9.20
2023-01-01T21:12:09.832Z,9.10
2023-01-01T21:17:22.816Z,9.10
2023-01-01T21:19:54.148Z,9.10
2023-01-01T21:27:30.845Z,9.00
2023-01-01T21:29:59.087Z,9.00
2023-01-01T21:32:29.626Z,12.40
2023-01-01T21:37:47.988Z,9.00
2023-01-01T21:40:46.618Z,10.20
2023-01-01T21:43:39.793Z,9.00
2023-01-01T21:46:35.676Z,9.20
2023-01-01T21:49:27.091Z,9.00
2023-01-01T21:52:00.904Z,9.00
2023-01-01T21:54:37.740Z,9.00
2023-01-01T21:57:18.245Z,9.00
2023-01-01T21:59:50.643Z,9.00
2023-01-01T22:02:23.157Z,9.20
2023-01-01T22:10:21.806Z,9.70
2023-01-01T22:12:59.520Z,8.70
2023-01-01T22:15:47.886Z,8.90
2023-01-01T22:18:37.677Z,9.10
2023-01-01T22:21:12.874Z,9.10
2023-01-01T22:23:42.420Z,8.90
2023-01-01T22:26:25.187Z,8.90
2023-01-01T22:29:03.287Z,8.90
2023-01-01T22:31:33.476Z,8.90
2023-01-01T22:34:04.504Z,8.70
2023-01-01T22:36:36.614Z,8.90
2023-01-01T22:39:44.568Z,8.90
2023-01-01T22:47:23.278Z,8.70
2023-01-01T23:04:02.029Z,8.80
2023-01-01T23:14:13.277Z,8.80
2023-01-01T23:16:41.520Z,8.90
2023-01-01T23:19:09.709Z,8.60
2023-01-01T23:21:40.953Z,8.80
2023-01-01T23:24:13.471Z,8.80
2023-01-01T23:29:14.463Z,8.80
2023-01-01T23:36:40.609Z,8.70
2023-01-01T23:44:05.603Z,8.80
2023-01-01T23:46:38.209Z,8.70
2023-01-01T23:49:06.903Z,8.80
